sensor_id;sensor_type;location;lat;lon;timestamp;P1;durP1;ratioP1;P2;durP2;ratioP2
44068;SDS011;29738;51.234;5.484;2022-11-15T00:00:09;47.58;;;18.52;;
44068;SDS011;29738;51.234;5.484;2022-11-15T00:02:35;44.80;;;17.70;;
44068;SDS011;29738;51.234;5.484;2022-11-15T00:05:01;41.50;;;16.67;;
44068;SDS011;29738;51.234;5.484;2022-11-15T00:07:27;50.08;;;16.95;;
44068;SDS011;29738;51.234;5.484;2022-11-15T00:09:53;52.55;;;17.10;;
44068;SDS011;29738;51.234;5.484;2022-11-15T00:12:18;50.63;;;17.20;;
44068;SDS011;29738;51.234;5.484;2022-11-15T00:14:44;51.22;;;18.52;;
44068;SDS011;29738;51.234;5.484;2022-11-15T00:17:10;43.25;;;16.95;;
44068;SDS011;29738;51.234;5.484;2022-11-15T00:19:35;60.90;;;18.77;;
44068;SDS011;29738;51.234;5.484;2022-11-15T00:22:01;45.90;;;19.20;;
44068;SDS011;29738;51.234;5.484;2022-11-15T00:24:27;51.28;;;17.85;;
44068;SDS011;29738;51.234;5.484;2022-11-15T00:26:53;53.45;;;19.08;;
44068;SDS011;29738;51.234;5.484;2022-11-15T00:29:18;50.40;;;18.02;;
44068;SDS011;29738;51.234;5.484;2022-11-15T00:31:44;49.90;;;18.17;;
44068;SDS011;29738;51.234;5.484;2022-11-15T00:34:10;49.08;;;18.92;;
44068;SDS011;29738;51.234;5.484;2022-11-15T00:36:36;49.95;;;19.50;;
44068;SDS011;29738;51.234;5.484;2022-11-15T00:39:03;47.63;;;18.58;;
44068;SDS011;29738;51.234;5.484;2022-11-15T00:41:30;47.35;;;17.48;;
44068;SDS011;29738;51.234;5.484;2022-11-15T00:43:56;46.60;;;17.85;;
44068;SDS011;29738;51.234;5.484;2022-11-15T00:46:22;43.33;;;17.85;;
44068;SDS011;29738;51.234;5.484;2022-11-15T00:48:48;50.17;;;16.70;;
44068;SDS011;29738;51.234;5.484;2022-11-15T00:51:13;46.50;;;16.45;;
44068;SDS011;29738;51.234;5.484;2022-11-15T00:53:39;45.78;;;17.08;;
44068;SDS011;29738;51.234;5.484;2022-11-15T00:56:05;43.65;;;17.10;;
44068;SDS011;29738;51.234;5.484;2022-11-15T00:58:31;40.17;;;16.45;;
44068;SDS011;29738;51.234;5.484;2022-11-15T01:01:04;34.78;;;14.45;;
44068;SDS011;29738;51.234;5.484;2022-11-15T01:03:35;43.25;;;15.02;;
44068;SDS011;29738;51.234;5.484;2022-11-15T01:06:01;31.85;;;14.32;;
44068;SDS011;29738;51.234;5.484;2022-11-15T01:08:28;32.17;;;13.77;;
44068;SDS011;29738;51.234;5.484;2022-11-15T01:10:53;33.78;;;13.93;;
44068;SDS011;29738;51.234;5.484;2022-11-15T01:13:19;28.52;;;12.60;;
44068;SDS011;29738;51.234;5.484;2022-11-15T01:15:45;25.90;;;12.43;;
44068;SDS011;29738;51.234;5.484;2022-11-15T01:18:11;28.75;;;12.70;;
44068;SDS011;29738;51.234;5.484;2022-11-15T01:20:41;26.63;;;11.88;;
44068;SDS011;29738;51.234;5.484;2022-11-15T01:23:07;25.23;;;12.00;;
44068;SDS011;29738;51.234;5.484;2022-11-15T01:25:33;26.55;;;11.85;;
44068;SDS011;29738;51.234;5.484;2022-11-15T01:27:59;30.45;;;12.88;;
44068;SDS011;29738;51.234;5.484;2022-11-15T01:30:24;23.13;;;11.50;;
44068;SDS011;29738;51.234;5.484;2022-11-15T01:32:50;22.58;;;11.10;;
44068;SDS011;29738;51.234;5.484;2022-11-15T01:35:16;23.10;;;10.82;;
44068;SDS011;29738;51.234;5.484;2022-11-15T01:37:42;23.20;;;10.52;;
44068;SDS011;29738;51.234;5.484;2022-11-15T01:40:07;23.17;;;10.18;;
44068;SDS011;29738;51.234;5.484;2022-11-15T01:42:33;20.42;;;10.10;;
44068;SDS011;29738;51.234;5.484;2022-11-15T01:44:59;19.70;;;9.98;;
44068;SDS011;29738;51.234;5.484;2022-11-15T01:47:29;23.17;;;10.73;;
44068;SDS011;29738;51.234;5.484;2022-11-15T01:50:12;19.40;;;8.70;;
44068;SDS011;29738;51.234;5.484;2022-11-15T01:52:40;19.80;;;10.10;;
44068;SDS011;29738;51.234;5.484;2022-11-15T01:55:26;18.48;;;10.05;;
44068;SDS011;29738;51.234;5.484;2022-11-15T01:57:53;17.92;;;9.45;;
44068;SDS011;29738;51.234;5.484;2022-11-15T02:00:22;16.83;;;8.68;;
44068;SDS011;29738;51.234;5.484;2022-11-15T02:02:48;19.48;;;9.25;;
44068;SDS011;29738;51.234;5.484;2022-11-15T02:05:14;18.30;;;9.85;;
44068;SDS011;29738;51.234;5.484;2022-11-15T02:07:40;16.02;;;8.18;;
44068;SDS011;29738;51.234;5.484;2022-11-15T02:10:07;15.90;;;8.80;;
44068;SDS011;29738;51.234;5.484;2022-11-15T02:12:39;15.32;;;9.40;;
44068;SDS011;29738;51.234;5.484;2022-11-15T02:15:06;17.65;;;8.38;;
44068;SDS011;29738;51.234;5.484;2022-11-15T02:17:41;15.30;;;8.52;;
44068;SDS011;29738;51.234;5.484;2022-11-15T02:29:12;14.93;;;8.20;;
44068;SDS011;29738;51.234;5.484;2022-11-15T02:31:55;14.77;;;8.80;;
44068;SDS011;29738;51.234;5.484;2022-11-15T02:43:00;15.85;;;8.35;;
44068;SDS011;29738;51.234;5.484;2022-11-15T02:45:54;15.00;;;8.35;;
44068;SDS011;29738;51.234;5.484;2022-11-15T02:48:27;15.63;;;8.10;;
44068;SDS011;29738;51.234;5.484;2022-11-15T02:50:54;15.15;;;8.25;;
44068;SDS011;29738;51.234;5.484;2022-11-15T02:53:24;15.52;;;9.05;;
44068;SDS011;29738;51.234;5.484;2022-11-15T02:55:50;17.48;;;8.82;;
44068;SDS011;29738;51.234;5.484;2022-11-15T03:06:41;19.38;;;9.15;;
44068;SDS011;29738;51.234;5.484;2022-11-15T03:12:12;15.07;;;8.23;;
44068;SDS011;29738;51.234;5.484;2022-11-15T03:14:55;18.10;;;10.05;;
44068;SDS011;29738;51.234;5.484;2022-11-15T03:17:38;16.02;;;9.27;;
44068;SDS011;29738;51.234;5.484;2022-11-15T03:20:08;17.23;;;8.98;;
44068;SDS011;29738;51.234;5.484;2022-11-15T03:22:39;17.33;;;8.65;;
44068;SDS011;29738;51.234;5.484;2022-11-15T03:25:09;16.83;;;9.25;;
44068;SDS011;29738;51.234;5.484;2022-11-15T03:27:39;15.65;;;8.77;;
44068;SDS011;29738;51.234;5.484;2022-11-15T03:30:09;16.58;;;9.02;;
44068;SDS011;29738;51.234;5.484;2022-11-15T03:32:55;16.58;;;9.50;;
44068;SDS011;29738;51.234;5.484;2022-11-15T03:35:30;14.20;;;8.52;;
44068;SDS011;29738;51.234;5.484;2022-11-15T03:38:15;20.35;;;9.93;;
44068;SDS011;29738;51.234;5.484;2022-11-15T03:40:51;15.95;;;8.75;;
44068;SDS011;29738;51.234;5.484;2022-11-15T03:46:11;16.70;;;9.32;;
44068;SDS011;29738;51.234;5.484;2022-11-15T03:48:41;16.48;;;8.48;;
44068;SDS011;29738;51.234;5.484;2022-11-15T03:51:12;15.70;;;8.80;;
44068;SDS011;29738;51.234;5.484;2022-11-15T03:53:38;14.77;;;8.63;;
44068;SDS011;29738;51.234;5.484;2022-11-15T03:56:05;19.38;;;9.00;;
44068;SDS011;29738;51.234;5.484;2022-11-15T03:58:31;16.48;;;9.15;;
44068;SDS011;29738;51.234;5.484;2022-11-15T04:00:57;16.75;;;8.60;;
44068;SDS011;29738;51.234;5.484;2022-11-15T04:03:24;13.27;;;7.72;;
44068;SDS011;29738;51.234;5.484;2022-11-15T04:05:50;14.32;;;8.05;;
44068;SDS011;29738;51.234;5.484;2022-11-15T04:08:16;14.52;;;8.63;;
44068;SDS011;29738;51.234;5.484;2022-11-15T04:10:41;13.52;;;8.60;;
44068;SDS011;29738;51.234;5.484;2022-11-15T04:13:07;16.48;;;8.93;;
44068;SDS011;29738;51.234;5.484;2022-11-15T04:15:33;15.52;;;8.80;;
44068;SDS011;29738;51.234;5.484;2022-11-15T04:17:59;16.05;;;9.45;;
44068;SDS011;29738;51.234;5.484;2022-11-15T04:20:26;15.98;;;8.32;;
44068;SDS011;29738;51.234;5.484;2022-11-15T04:23:13;15.43;;;8.25;;
44068;SDS011;29738;51.234;5.484;2022-11-15T04:26:03;13.20;;;7.80;;
44068;SDS011;29738;51.234;5.484;2022-11-15T04:28:30;15.27;;;8.07;;
44068;SDS011;29738;51.234;5.484;2022-11-15T04:30:56;14.35;;;7.97;;
44068;SDS011;29738;51.234;5.484;2022-11-15T04:33:22;14.25;;;7.90;;
44068;SDS011;29738;51.234;5.484;2022-11-15T04:35:48;15.35;;;8.55;;
44068;SDS011;29738;51.234;5.484;2022-11-15T04:38:33;13.05;;;8.25;;
44068;SDS011;29738;51.234;5.484;2022-11-15T04:41:00;15.65;;;9.00;;
44068;SDS011;29738;51.234;5.484;2022-11-15T04:43:26;17.60;;;8.77;;
44068;SDS011;29738;51.234;5.484;2022-11-15T04:45:51;16.25;;;8.10;;
44068;SDS011;29738;51.234;5.484;2022-11-15T04:48:17;14.02;;;7.82;;
44068;SDS011;29738;51.234;5.484;2022-11-15T04:50:43;13.38;;;7.45;;
44068;SDS011;29738;51.234;5.484;2022-11-15T04:53:08;15.77;;;10.25;;
44068;SDS011;29738;51.234;5.484;2022-11-15T04:55:34;61.55;;;38.63;;
44068;SDS011;29738;51.234;5.484;2022-11-15T04:58:00;30.50;;;19.20;;
44068;SDS011;29738;51.234;5.484;2022-11-15T05:00:27;26.95;;;19.30;;
44068;SDS011;29738;51.234;5.484;2022-11-15T05:02:54;18.02;;;12.73;;
44068;SDS011;29738;51.234;5.484;2022-11-15T05:05:39;16.67;;;11.45;;
44068;SDS011;29738;51.234;5.484;2022-11-15T05:08:05;36.20;;;25.35;;
44068;SDS011;29738;51.234;5.484;2022-11-15T05:10:30;23.30;;;17.73;;
44068;SDS011;29738;51.234;5.484;2022-11-15T05:12:56;24.45;;;19.05;;
44068;SDS011;29738;51.234;5.484;2022-11-15T05:15:22;17.02;;;11.95;;
44068;SDS011;29738;51.234;5.484;2022-11-15T05:17:48;12.57;;;8.68;;
44068;SDS011;29738;51.234;5.484;2022-11-15T05:20:13;12.55;;;7.18;;
44068;SDS011;29738;51.234;5.484;2022-11-15T05:22:39;13.05;;;6.93;;
44068;SDS011;29738;51.234;5.484;2022-11-15T05:25:05;14.75;;;8.57;;
44068;SDS011;29738;51.234;5.484;2022-11-15T05:27:32;16.15;;;8.05;;
44068;SDS011;29738;51.234;5.484;2022-11-15T05:29:59;14.90;;;7.82;;
44068;SDS011;29738;51.234;5.484;2022-11-15T05:32:25;21.48;;;16.83;;
44068;SDS011;29738;51.234;5.484;2022-11-15T05:34:51;17.50;;;11.57;;
44068;SDS011;29738;51.234;5.484;2022-11-15T05:37:17;13.20;;;7.50;;
44068;SDS011;29738;51.234;5.484;2022-11-15T05:39:43;11.95;;;6.55;;
44068;SDS011;29738;51.234;5.484;2022-11-15T05:42:09;14.15;;;8.32;;
44068;SDS011;29738;51.234;5.484;2022-11-15T05:44:37;12.15;;;7.65;;
44068;SDS011;29738;51.234;5.484;2022-11-15T05:47:06;12.10;;;6.80;;
44068;SDS011;29738;51.234;5.484;2022-11-15T05:49:35;12.98;;;7.00;;
44068;SDS011;29738;51.234;5.484;2022-11-15T05:52:07;10.13;;;6.50;;
44068;SDS011;29738;51.234;5.484;2022-11-15T05:54:38;12.57;;;6.38;;
44068;SDS011;29738;51.234;5.484;2022-11-15T05:57:04;14.55;;;6.63;;
44068;SDS011;29738;51.234;5.484;2022-11-15T05:59:30;11.85;;;7.68;;
44068;SDS011;29738;51.234;5.484;2022-11-15T06:01:58;9.65;;;6.60;;
44068;SDS011;29738;51.234;5.484;2022-11-15T06:04:24;18.88;;;9.98;;
44068;SDS011;29738;51.234;5.484;2022-11-15T06:06:50;10.30;;;6.00;;
44068;SDS011;29738;51.234;5.484;2022-11-15T06:09:15;9.88;;;5.13;;
44068;SDS011;29738;51.234;5.484;2022-11-15T06:11:41;13.48;;;6.80;;
44068;SDS011;29738;51.234;5.484;2022-11-15T06:14:07;9.45;;;5.00;;
44068;SDS011;29738;51.234;5.484;2022-11-15T06:16:33;9.93;;;5.15;;
44068;SDS011;29738;51.234;5.484;2022-11-15T06:18:58;11.90;;;5.70;;
44068;SDS011;29738;51.234;5.484;2022-11-15T06:21:24;9.10;;;4.28;;
44068;SDS011;29738;51.234;5.484;2022-11-15T06:23:52;8.70;;;5.35;;
44068;SDS011;29738;51.234;5.484;2022-11-15T06:26:18;9.95;;;5.85;;
44068;SDS011;29738;51.234;5.484;2022-11-15T06:28:44;13.43;;;6.10;;
44068;SDS011;29738;51.234;5.484;2022-11-15T06:31:10;10.48;;;5.25;;
44068;SDS011;29738;51.234;5.484;2022-11-15T06:33:37;10.20;;;4.80;;
44068;SDS011;29738;51.234;5.484;2022-11-15T06:36:04;9.65;;;5.00;;
44068;SDS011;29738;51.234;5.484;2022-11-15T06:38:34;9.15;;;5.30;;
44068;SDS011;29738;51.234;5.484;2022-11-15T06:41:03;9.63;;;5.35;;
44068;SDS011;29738;51.234;5.484;2022-11-15T06:43:31;11.10;;;5.25;;
44068;SDS011;29738;51.234;5.484;2022-11-15T06:45:57;9.13;;;4.47;;
44068;SDS011;29738;51.234;5.484;2022-11-15T06:48:24;12.90;;;5.28;;
44068;SDS011;29738;51.234;5.484;2022-11-15T06:50:54;8.90;;;5.00;;
44068;SDS011;29738;51.234;5.484;2022-11-15T06:53:22;10.52;;;5.20;;
44068;SDS011;29738;51.234;5.484;2022-11-15T06:55:48;11.38;;;5.47;;
44068;SDS011;29738;51.234;5.484;2022-11-15T06:58:14;10.65;;;5.55;;
44068;SDS011;29738;51.234;5.484;2022-11-15T07:00:40;13.25;;;7.50;;
44068;SDS011;29738;51.234;5.484;2022-11-15T07:03:06;12.70;;;6.85;;
44068;SDS011;29738;51.234;5.484;2022-11-15T07:05:31;12.68;;;6.68;;
44068;SDS011;29738;51.234;5.484;2022-11-15T07:07:57;13.30;;;6.10;;
44068;SDS011;29738;51.234;5.484;2022-11-15T07:10:24;14.32;;;8.68;;
44068;SDS011;29738;51.234;5.484;2022-11-15T07:12:51;13.00;;;8.55;;
44068;SDS011;29738;51.234;5.484;2022-11-15T07:15:17;12.50;;;5.88;;
44068;SDS011;29738;51.234;5.484;2022-11-15T07:17:44;11.30;;;5.72;;
44068;SDS011;29738;51.234;5.484;2022-11-15T07:20:10;11.18;;;5.38;;
44068;SDS011;29738;51.234;5.484;2022-11-15T07:22:36;11.35;;;5.35;;
44068;SDS011;29738;51.234;5.484;2022-11-15T07:25:02;10.73;;;5.10;;
44068;SDS011;29738;51.234;5.484;2022-11-15T07:27:28;10.07;;;5.10;;
44068;SDS011;29738;51.234;5.484;2022-11-15T07:29:53;11.48;;;5.03;;
44068;SDS011;29738;51.234;5.484;2022-11-15T07:32:19;8.70;;;5.22;;
44068;SDS011;29738;51.234;5.484;2022-11-15T07:34:45;12.82;;;5.28;;
44068;SDS011;29738;51.234;5.484;2022-11-15T07:37:11;10.15;;;4.35;;
44068;SDS011;29738;51.234;5.484;2022-11-15T07:39:37;10.70;;;5.00;;
44068;SDS011;29738;51.234;5.484;2022-11-15T07:42:03;7.50;;;3.88;;
44068;SDS011;29738;51.234;5.484;2022-11-15T07:44:52;7.38;;;3.85;;
44068;SDS011;29738;51.234;5.484;2022-11-15T07:47:17;8.32;;;4.05;;
44068;SDS011;29738;51.234;5.484;2022-11-15T07:49:43;9.10;;;4.13;;
44068;SDS011;29738;51.234;5.484;2022-11-15T07:52:11;8.20;;;4.10;;
44068;SDS011;29738;51.234;5.484;2022-11-15T07:54:37;9.98;;;4.63;;
44068;SDS011;29738;51.234;5.484;2022-11-15T07:57:02;9.55;;;4.80;;
44068;SDS011;29738;51.234;5.484;2022-11-15T07:59:28;8.20;;;4.30;;
44068;SDS011;29738;51.234;5.484;2022-11-15T08:01:54;8.40;;;3.75;;
44068;SDS011;29738;51.234;5.484;2022-11-15T08:04:19;8.13;;;4.18;;
44068;SDS011;29738;51.234;5.484;2022-11-15T08:06:45;6.95;;;4.13;;
44068;SDS011;29738;51.234;5.484;2022-11-15T08:09:11;7.47;;;3.75;;
44068;SDS011;29738;51.234;5.484;2022-11-15T08:11:37;8.40;;;3.58;;
44068;SDS011;29738;51.234;5.484;2022-11-15T08:14:02;9.68;;;4.07;;
44068;SDS011;29738;51.234;5.484;2022-11-15T08:16:28;10.43;;;3.80;;
44068;SDS011;29738;51.234;5.484;2022-11-15T08:18:54;8.13;;;4.47;;
44068;SDS011;29738;51.234;5.484;2022-11-15T08:21:20;6.03;;;3.33;;
44068;SDS011;29738;51.234;5.484;2022-11-15T08:23:46;8.02;;;3.80;;
44068;SDS011;29738;51.234;5.484;2022-11-15T08:26:12;7.18;;;4.15;;
44068;SDS011;29738;51.234;5.484;2022-11-15T08:28:37;6.28;;;3.63;;
44068;SDS011;29738;51.234;5.484;2022-11-15T08:31:03;8.80;;;3.92;;
44068;SDS011;29738;51.234;5.484;2022-11-15T08:33:29;7.47;;;4.15;;
44068;SDS011;29738;51.234;5.484;2022-11-15T08:35:57;8.85;;;4.43;;
44068;SDS011;29738;51.234;5.484;2022-11-15T08:38:24;7.75;;;3.92;;
44068;SDS011;29738;51.234;5.484;2022-11-15T08:40:51;10.18;;;4.18;;
44068;SDS011;29738;51.234;5.484;2022-11-15T08:43:18;7.10;;;3.70;;
44068;SDS011;29738;51.234;5.484;2022-11-15T08:45:44;8.25;;;4.03;;
44068;SDS011;29738;51.234;5.484;2022-11-15T08:48:10;7.13;;;3.38;;
44068;SDS011;29738;51.234;5.484;2022-11-15T08:50:35;6.15;;;3.30;;
44068;SDS011;29738;51.234;5.484;2022-11-15T08:53:05;8.93;;;2.90;;
44068;SDS011;29738;51.234;5.484;2022-11-15T08:55:32;5.93;;;2.80;;
44068;SDS011;29738;51.234;5.484;2022-11-15T08:58:00;6.35;;;3.10;;
44068;SDS011;29738;51.234;5.484;2022-11-15T09:00:26;5.45;;;2.63;;
44068;SDS011;29738;51.234;5.484;2022-11-15T09:02:52;4.88;;;2.30;;
44068;SDS011;29738;51.234;5.484;2022-11-15T09:05:17;5.72;;;2.17;;
44068;SDS011;29738;51.234;5.484;2022-11-15T09:07:43;4.85;;;2.05;;
44068;SDS011;29738;51.234;5.484;2022-11-15T09:10:09;5.03;;;2.15;;
44068;SDS011;29738;51.234;5.484;2022-11-15T09:12:35;5.00;;;2.10;;
44068;SDS011;29738;51.234;5.484;2022-11-15T09:15:01;4.60;;;1.80;;
44068;SDS011;29738;51.234;5.484;2022-11-15T09:17:27;4.00;;;1.80;;
44068;SDS011;29738;51.234;5.484;2022-11-15T09:19:53;5.95;;;1.95;;
44068;SDS011;29738;51.234;5.484;2022-11-15T09:22:18;6.05;;;1.70;;
44068;SDS011;29738;51.234;5.484;2022-11-15T09:24:44;5.38;;;1.63;;
44068;SDS011;29738;51.234;5.484;2022-11-15T09:27:10;4.88;;;1.90;;
44068;SDS011;29738;51.234;5.484;2022-11-15T09:29:36;7.50;;;2.33;;
44068;SDS011;29738;51.234;5.484;2022-11-15T09:32:02;3.15;;;1.30;;
44068;SDS011;29738;51.234;5.484;2022-11-15T09:34:28;3.80;;;2.05;;
44068;SDS011;29738;51.234;5.484;2022-11-15T09:36:54;3.72;;;1.67;;
44068;SDS011;29738;51.234;5.484;2022-11-15T09:39:19;5.38;;;1.77;;
44068;SDS011;29738;51.234;5.484;2022-11-15T09:41:50;6.20;;;2.00;;
44068;SDS011;29738;51.234;5.484;2022-11-15T09:44:41;3.90;;;1.50;;
44068;SDS011;29738;51.234;5.484;2022-11-15T09:49:56;4.38;;;1.38;;
44068;SDS011;29738;51.234;5.484;2022-11-15T09:52:24;3.83;;;1.48;;
44068;SDS011;29738;51.234;5.484;2022-11-15T09:54:51;3.88;;;1.50;;
44068;SDS011;29738;51.234;5.484;2022-11-15T09:57:28;6.00;;;1.75;;
44068;SDS011;29738;51.234;5.484;2022-11-15T10:05:20;4.45;;;1.40;;
44068;SDS011;29738;51.234;5.484;2022-11-15T10:10:43;4.28;;;1.40;;
44068;SDS011;29738;51.234;5.484;2022-11-15T10:21:57;3.78;;;1.48;;
44068;SDS011;29738;51.234;5.484;2022-11-15T10:24:26;5.13;;;1.60;;
44068;SDS011;29738;51.234;5.484;2022-11-15T10:26:57;3.80;;;1.70;;
44068;SDS011;29738;51.234;5.484;2022-11-15T10:29:23;4.03;;;1.27;;
44068;SDS011;29738;51.234;5.484;2022-11-15T10:31:50;3.78;;;1.33;;
44068;SDS011;29738;51.234;5.484;2022-11-15T10:34:20;4.38;;;1.40;;
44068;SDS011;29738;51.234;5.484;2022-11-15T10:37:00;4.93;;;1.30;;
44068;SDS011;29738;51.234;5.484;2022-11-15T10:39:27;3.13;;;1.30;;
44068;SDS011;29738;51.234;5.484;2022-11-15T10:41:53;9.95;;;1.50;;
44068;SDS011;29738;51.234;5.484;2022-11-15T10:44:23;3.05;;;1.30;;
44068;SDS011;29738;51.234;5.484;2022-11-15T10:49:21;4.50;;;1.52;;
44068;SDS011;29738;51.234;5.484;2022-11-15T10:54:25;3.55;;;1.40;;
44068;SDS011;29738;51.234;5.484;2022-11-15T10:56:59;5.60;;;1.45;;
44068;SDS011;29738;51.234;5.484;2022-11-15T10:59:32;3.33;;;1.40;;
44068;SDS011;29738;51.234;5.484;2022-11-15T11:02:01;4.07;;;1.25;;
44068;SDS011;29738;51.234;5.484;2022-11-15T11:04:27;3.35;;;1.15;;
44068;SDS011;29738;51.234;5.484;2022-11-15T11:06:54;2.78;;;1.15;;
44068;SDS011;29738;51.234;5.484;2022-11-15T11:12:00;5.30;;;1.10;;
44068;SDS011;29738;51.234;5.484;2022-11-15T11:14:28;3.80;;;1.33;;
44068;SDS011;29738;51.234;5.484;2022-11-15T11:17:09;7.25;;;1.15;;
44068;SDS011;29738;51.234;5.484;2022-11-15T11:25:48;4.35;;;1.20;;
44068;SDS011;29738;51.234;5.484;2022-11-15T11:31:14;2.13;;;0.90;;
44068;SDS011;29738;51.234;5.484;2022-11-15T11:42:26;2.55;;;1.00;;
44068;SDS011;29738;51.234;5.484;2022-11-15T11:45:15;4.07;;;1.20;;
44068;SDS011;29738;51.234;5.484;2022-11-15T11:48:14;5.35;;;1.15;;
44068;SDS011;29738;51.234;5.484;2022-11-15T11:50:52;5.70;;;1.10;;
44068;SDS011;29738;51.234;5.484;2022-11-15T11:55:57;3.60;;;1.10;;
44068;SDS011;29738;51.234;5.484;2022-11-15T11:58:42;4.38;;;1.17;;
44068;SDS011;29738;51.234;5.484;2022-11-15T12:03:53;4.20;;;1.15;;
44068;SDS011;29738;51.234;5.484;2022-11-15T12:06:41;3.25;;;1.42;;
44068;SDS011;29738;51.234;5.484;2022-11-15T12:15:04;5.15;;;1.05;;
44068;SDS011;29738;51.234;5.484;2022-11-15T12:17:36;3.22;;;1.02;;
44068;SDS011;29738;51.234;5.484;2022-11-15T12:20:06;4.97;;;1.15;;
44068;SDS011;29738;51.234;5.484;2022-11-15T12:23:03;3.28;;;0.95;;
44068;SDS011;29738;51.234;5.484;2022-11-15T12:31:12;4.22;;;1.10;;
44068;SDS011;29738;51.234;5.484;2022-11-15T12:33:42;2.45;;;1.10;;
44068;SDS011;29738;51.234;5.484;2022-11-15T12:36:10;3.72;;;1.38;;
44068;SDS011;29738;51.234;5.484;2022-11-15T12:41:30;2.97;;;0.90;;
44068;SDS011;29738;51.234;5.484;2022-11-15T12:43:57;3.20;;;1.00;;
44068;SDS011;29738;51.234;5.484;2022-11-15T12:49:09;5.50;;;1.23;;
44068;SDS011;29738;51.234;5.484;2022-11-15T12:59:52;2.80;;;1.02;;
44068;SDS011;29738;51.234;5.484;2022-11-15T13:12:56;3.05;;;1.00;;
44068;SDS011;29738;51.234;5.484;2022-11-15T13:20:28;2.53;;;1.15;;
44068;SDS011;29738;51.234;5.484;2022-11-15T13:23:07;4.25;;;1.30;;
44068;SDS011;29738;51.234;5.484;2022-11-15T13:28:27;4.47;;;1.10;;
44068;SDS011;29738;51.234;5.484;2022-11-15T13:31:00;3.17;;;0.90;;
44068;SDS011;29738;51.234;5.484;2022-11-15T13:33:38;3.63;;;1.00;;
44068;SDS011;29738;51.234;5.484;2022-11-15T13:36:27;4.05;;;1.27;;
44068;SDS011;29738;51.234;5.484;2022-11-15T13:41:30;3.50;;;1.00;;
44068;SDS011;29738;51.234;5.484;2022-11-15T13:44:00;4.40;;;1.40;;
44068;SDS011;29738;51.234;5.484;2022-11-15T13:46:28;5.70;;;1.70;;
44068;SDS011;29738;51.234;5.484;2022-11-15T13:48:59;5.18;;;1.48;;
44068;SDS011;29738;51.234;5.484;2022-11-15T13:54:09;5.25;;;1.63;;
44068;SDS011;29738;51.234;5.484;2022-11-15T13:56:42;4.70;;;1.48;;
44068;SDS011;29738;51.234;5.484;2022-11-15T13:59:24;5.55;;;1.80;;
44068;SDS011;29738;51.234;5.484;2022-11-15T14:01:51;4.03;;;1.48;;
44068;SDS011;29738;51.234;5.484;2022-11-15T14:04:19;5.78;;;1.80;;
44068;SDS011;29738;51.234;5.484;2022-11-15T14:06:49;5.53;;;1.63;;
44068;SDS011;29738;51.234;5.484;2022-11-15T14:09:28;4.63;;;1.50;;
44068;SDS011;29738;51.234;5.484;2022-11-15T14:11:55;5.50;;;1.50;;
44068;SDS011;29738;51.234;5.484;2022-11-15T14:14:22;6.68;;;1.80;;
44068;SDS011;29738;51.234;5.484;2022-11-15T14:16:51;7.60;;;1.73;;
44068;SDS011;29738;51.234;5.484;2022-11-15T14:24:47;3.85;;;1.55;;
44068;SDS011;29738;51.234;5.484;2022-11-15T14:27:30;7.45;;;1.55;;
44068;SDS011;29738;51.234;5.484;2022-11-15T14:29:56;7.68;;;1.88;;
44068;SDS011;29738;51.234;5.484;2022-11-15T14:32:23;3.97;;;1.38;;
44068;SDS011;29738;51.234;5.484;2022-11-15T14:34:59;4.18;;;1.25;;
44068;SDS011;29738;51.234;5.484;2022-11-15T14:37:27;4.80;;;1.50;;
44068;SDS011;29738;51.234;5.484;2022-11-15T14:39:56;3.85;;;1.20;;
44068;SDS011;29738;51.234;5.484;2022-11-15T14:42:22;5.05;;;1.48;;
44068;SDS011;29738;51.234;5.484;2022-11-15T14:44:48;4.70;;;1.30;;
44068;SDS011;29738;51.234;5.484;2022-11-15T14:47:15;3.28;;;1.38;;
44068;SDS011;29738;51.234;5.484;2022-11-15T14:49:40;6.47;;;1.70;;
44068;SDS011;29738;51.234;5.484;2022-11-15T14:52:10;4.50;;;1.63;;
44068;SDS011;29738;51.234;5.484;2022-11-15T14:54:48;3.65;;;1.35;;
44068;SDS011;29738;51.234;5.484;2022-11-15T14:57:14;3.80;;;1.45;;
44068;SDS011;29738;51.234;5.484;2022-11-15T14:59:40;3.70;;;1.48;;
44068;SDS011;29738;51.234;5.484;2022-11-15T15:02:12;5.65;;;1.42;;
44068;SDS011;29738;51.234;5.484;2022-11-15T15:04:49;5.53;;;1.60;;
44068;SDS011;29738;51.234;5.484;2022-11-15T15:07:15;6.72;;;1.80;;
44068;SDS011;29738;51.234;5.484;2022-11-15T15:09:42;5.88;;;1.80;;
44068;SDS011;29738;51.234;5.484;2022-11-15T15:12:12;5.78;;;1.80;;
44068;SDS011;29738;51.234;5.484;2022-11-15T15:14:39;4.80;;;1.65;;
44068;SDS011;29738;51.234;5.484;2022-11-15T15:17:05;5.20;;;1.77;;
44068;SDS011;29738;51.234;5.484;2022-11-15T15:19:31;5.63;;;2.08;;
44068;SDS011;29738;51.234;5.484;2022-11-15T15:21:57;6.07;;;2.03;;
44068;SDS011;29738;51.234;5.484;2022-11-15T15:24:22;5.60;;;1.75;;
44068;SDS011;29738;51.234;5.484;2022-11-15T15:26:48;5.55;;;1.80;;
44068;SDS011;29738;51.234;5.484;2022-11-15T15:29:14;5.10;;;1.60;;
44068;SDS011;29738;51.234;5.484;2022-11-15T15:31:40;4.18;;;1.88;;
44068;SDS011;29738;51.234;5.484;2022-11-15T15:34:06;6.25;;;2.05;;
44068;SDS011;29738;51.234;5.484;2022-11-15T15:36:32;5.80;;;1.67;;
44068;SDS011;29738;51.234;5.484;2022-11-15T15:38:58;6.07;;;2.00;;
44068;SDS011;29738;51.234;5.484;2022-11-15T15:41:23;4.50;;;1.98;;
44068;SDS011;29738;51.234;5.484;2022-11-15T15:43:49;5.45;;;2.35;;
44068;SDS011;29738;51.234;5.484;2022-11-15T15:46:16;5.95;;;2.42;;
44068;SDS011;29738;51.234;5.484;2022-11-15T15:48:43;5.97;;;2.53;;
44068;SDS011;29738;51.234;5.484;2022-11-15T15:51:09;5.55;;;2.40;;
44068;SDS011;29738;51.234;5.484;2022-11-15T15:53:35;5.45;;;2.38;;
44068;SDS011;29738;51.234;5.484;2022-11-15T15:56:01;6.45;;;2.50;;
44068;SDS011;29738;51.234;5.484;2022-11-15T15:58:27;5.25;;;2.22;;
44068;SDS011;29738;51.234;5.484;2022-11-15T16:00:52;7.63;;;2.40;;
44068;SDS011;29738;51.234;5.484;2022-11-15T16:03:18;5.65;;;2.55;;
44068;SDS011;29738;51.234;5.484;2022-11-15T16:05:44;6.13;;;2.58;;
44068;SDS011;29738;51.234;5.484;2022-11-15T16:08:19;6.20;;;2.80;;
44068;SDS011;29738;51.234;5.484;2022-11-15T16:10:46;6.63;;;2.75;;
44068;SDS011;29738;51.234;5.484;2022-11-15T16:13:13;7.60;;;3.08;;
44068;SDS011;29738;51.234;5.484;2022-11-15T16:15:39;6.20;;;2.78;;
44068;SDS011;29738;51.234;5.484;2022-11-15T16:18:05;5.75;;;2.70;;
44068;SDS011;29738;51.234;5.484;2022-11-15T16:23:15;6.80;;;3.20;;
44068;SDS011;29738;51.234;5.484;2022-11-15T16:25:49;6.47;;;2.90;;
44068;SDS011;29738;51.234;5.484;2022-11-15T16:28:21;8.88;;;3.58;;
44068;SDS011;29738;51.234;5.484;2022-11-15T16:31:02;6.78;;;3.42;;
44068;SDS011;29738;51.234;5.484;2022-11-15T16:33:29;8.20;;;3.90;;
44068;SDS011;29738;51.234;5.484;2022-11-15T16:35:55;7.78;;;3.50;;
44068;SDS011;29738;51.234;5.484;2022-11-15T16:38:21;6.05;;;3.20;;
44068;SDS011;29738;51.234;5.484;2022-11-15T16:40:47;7.50;;;3.70;;
44068;SDS011;29738;51.234;5.484;2022-11-15T16:43:13;7.30;;;3.58;;
44068;SDS011;29738;51.234;5.484;2022-11-15T16:45:38;8.40;;;3.70;;
44068;SDS011;29738;51.234;5.484;2022-11-15T16:48:04;8.10;;;3.83;;
44068;SDS011;29738;51.234;5.484;2022-11-15T16:50:31;8.07;;;3.35;;
44068;SDS011;29738;51.234;5.484;2022-11-15T16:53:04;9.68;;;4.53;;
44068;SDS011;29738;51.234;5.484;2022-11-15T16:55:30;9.50;;;5.07;;
44068;SDS011;29738;51.234;5.484;2022-11-15T16:57:56;8.50;;;4.95;;
44068;SDS011;29738;51.234;5.484;2022-11-15T17:00:23;9.15;;;4.35;;
44068;SDS011;29738;51.234;5.484;2022-11-15T17:02:49;8.30;;;4.57;;
44068;SDS011;29738;51.234;5.484;2022-11-15T17:05:17;8.82;;;4.70;;
44068;SDS011;29738;51.234;5.484;2022-11-15T17:07:45;10.55;;;4.85;;